createdAt,value
2018-05-25T00:01:55.587Z,15.53
2018-05-25T00:04:22.117Z,15.63
2018-05-25T00:06:48.696Z,15.50
2018-05-25T00:09:15.077Z,15.20
2018-05-25T00:11:41.563Z,16.10
2018-05-25T00:14:08.034Z,15.20
2018-05-25T00:16:36.007Z,14.30
2018-05-25T00:19:02.411Z,14.93
2018-05-25T00:21:29.752Z,16.50
2018-05-25T00:23:56.183Z,16.20
2018-05-25T00:26:22.528Z,15.03
2018-05-25T00:28:49.963Z,14.10
2018-05-25T00:31:16.617Z,14.83
2018-05-25T00:33:43.813Z,13.67
2018-05-25T00:36:10.330Z,15.33
2018-05-25T00:38:36.800Z,13.00
2018-05-25T00:41:03.320Z,13.93
2018-05-25T00:43:29.882Z,14.53
2018-05-25T00:45:57.040Z,14.40
2018-05-25T00:48:23.685Z,14.80
2018-05-25T00:50:50.889Z,15.53
2018-05-25T00:53:17.292Z,14.53
2018-05-25T00:55:44.531Z,13.50
2018-05-25T00:58:11.755Z,14.57
2018-05-25T01:00:38.290Z,15.80
2018-05-25T01:03:06.980Z,15.43
2018-05-25T01:05:33.666Z,16.67
2018-05-25T01:08:00.254Z,15.53
2018-05-25T01:10:26.779Z,16.43
2018-05-25T01:12:53.150Z,16.97
2018-05-25T01:15:20.350Z,14.40
2018-05-25T01:17:46.791Z,15.80
2018-05-25T01:20:13.292Z,14.90
2018-05-25T01:22:39.815Z,14.07
2018-05-25T01:25:06.467Z,14.73
2018-05-25T01:27:33.008Z,14.20
2018-05-25T01:29:59.428Z,15.07
2018-05-25T01:32:25.935Z,14.80
2018-05-25T01:34:53.240Z,14.20
2018-05-25T01:37:19.621Z,15.70
2018-05-25T01:39:47.993Z,15.67
2018-05-25T01:42:15.310Z,16.07
2018-05-25T01:44:41.848Z,16.00
2018-05-25T01:47:08.396Z,14.40
2018-05-25T01:49:35.603Z,14.47
2018-05-25T01:52:02.299Z,15.27
2018-05-25T01:54:29.533Z,15.83
2018-05-25T01:56:56.017Z,16.20
2018-05-25T01:59:22.648Z,16.37
2018-05-25T02:01:49.185Z,15.10
2018-05-25T02:04:15.620Z,15.70
2018-05-25T02:06:42.177Z,16.10
2018-05-25T02:09:08.703Z,15.47
2018-05-25T02:11:36.064Z,16.10
2018-05-25T02:14:02.897Z,17.43
2018-05-25T02:16:29.274Z,15.70
2018-05-25T02:18:56.503Z,14.63
2018-05-25T02:21:22.989Z,14.60
2018-05-25T02:23:50.565Z,14.63
2018-05-25T02:26:17.172Z,15.40
2018-05-25T02:28:44.487Z,15.80
2018-05-25T02:31:10.967Z,16.57
2018-05-25T02:33:37.347Z,15.83
2018-05-25T02:36:03.828Z,16.80
2018-05-25T02:38:30.232Z,16.20
2018-05-25T02:40:57.418Z,15.47
2018-05-25T02:43:23.969Z,15.30
2018-05-25T02:45:50.517Z,16.07
2018-05-25T02:48:17.080Z,14.20
2018-05-25T02:50:43.520Z,16.67
2018-05-25T02:53:12.391Z,15.77
2018-05-25T02:55:39.141Z,16.43
2018-05-25T02:58:05.562Z,16.20
2018-05-25T03:00:32.217Z,15.33
2018-05-25T03:02:58.701Z,15.20
2018-05-25T03:05:25.166Z,16.20
2018-05-25T03:07:53.034Z,15.80
2018-05-25T03:10:19.456Z,14.37
2018-05-25T03:12:45.878Z,14.43
2018-05-25T03:15:12.329Z,15.30
2018-05-25T03:17:38.785Z,15.60
2018-05-25T03:20:06.133Z,14.80
2018-05-25T03:22:32.749Z,16.33
2018-05-25T03:24:59.191Z,15.67
2018-05-25T03:27:26.460Z,15.30
2018-05-25T03:29:52.894Z,15.40
2018-05-25T03:32:20.210Z,15.63
2018-05-25T03:34:46.727Z,13.70
2018-05-25T03:37:13.402Z,14.13
2018-05-25T03:39:40.154Z,13.70
2018-05-25T03:42:07.284Z,14.13
2018-05-25T03:44:34.229Z,14.30
2018-05-25T03:47:01.552Z,13.20
2018-05-25T03:49:28.083Z,14.07
2018-05-25T03:51:54.748Z,14.57
2018-05-25T03:54:21.277Z,15.00
2018-05-25T03:56:47.721Z,16.60
2018-05-25T03:59:27.990Z,16.20
2018-05-25T04:01:57.343Z,14.73
2018-05-25T04:04:23.883Z,15.33
2018-05-25T04:06:50.535Z,17.47
2018-05-25T04:09:17.139Z,16.13
2018-05-25T04:11:43.777Z,47.50
2018-05-25T04:14:10.314Z,54.37
2018-05-25T04:16:36.827Z,51.40
2018-05-25T04:19:04.201Z,53.23
2018-05-25T04:21:30.973Z,41.43
2018-05-25T04:23:57.416Z,19.57
2018-05-25T04:26:23.967Z,21.07
2018-05-25T04:28:51.204Z,18.33
2018-05-25T04:31:17.906Z,18.73
2018-05-25T04:33:47.873Z,18.23
2018-05-25T04:36:14.994Z,19.53
2018-05-25T04:38:41.450Z,18.73
2018-05-25T04:41:08.902Z,18.40
2018-05-25T04:43:35.537Z,19.20
2018-05-25T04:46:01.929Z,17.83
2018-05-25T04:48:28.440Z,18.20
2018-05-25T04:50:54.885Z,17.37
2018-05-25T04:53:21.465Z,18.30
2018-05-25T04:55:48.657Z,18.93
2018-05-25T04:58:15.079Z,20.00
2018-05-25T05:00:42.492Z,18.13
2018-05-25T05:03:09.043Z,19.83
2018-05-25T05:05:35.978Z,18.23
2018-05-25T05:08:03.152Z,20.97
2018-05-25T05:10:30.465Z,17.73
2018-05-25T05:12:57.158Z,18.90
2018-05-25T05:15:23.624Z,19.93
2018-05-25T05:17:50.242Z,18.60
2018-05-25T05:20:16.602Z,17.80
2018-05-25T05:22:43.075Z,17.00
2018-05-25T05:25:10.200Z,16.33
2018-05-25T05:27:36.707Z,15.63
2018-05-25T05:30:03.261Z,16.50
2018-05-25T05:32:30.157Z,18.57
2018-05-25T05:34:56.536Z,18.20
2018-05-25T05:37:23.052Z,16.90
2018-05-25T05:39:49.717Z,16.40
2018-05-25T05:42:17.783Z,17.03
2018-05-25T05:44:44.232Z,17.00
2018-05-25T05:47:11.565Z,16.57
2018-05-25T05:49:38.724Z,16.60
2018-05-25T05:52:05.323Z,16.40
2018-05-25T05:54:31.786Z,17.37
2018-05-25T05:56:58.281Z,16.40
2018-05-25T05:59:24.836Z,17.10
2018-05-25T06:01:51.246Z,16.53
2018-05-25T06:04:18.026Z,15.77
2018-05-25T06:06:45.233Z,17.30
2018-05-25T06:09:11.824Z,14.23
2018-05-25T06:11:38.313Z,15.60
2018-05-25T06:14:05.039Z,16.37
2018-05-25T06:16:31.853Z,16.80
2018-05-25T06:18:59.095Z,15.73
2018-05-25T06:21:26.426Z,17.90
2018-05-25T06:23:53.900Z,15.60
2018-05-25T06:26:20.405Z,16.67
2018-05-25T06:28:46.820Z,14.60
2018-05-25T06:31:13.227Z,15.90
2018-05-25T06:33:39.673Z,15.30
2018-05-25T06:36:06.094Z,14.73
2018-05-25T06:38:32.527Z,14.47
2018-05-25T06:40:58.908Z,14.60
2018-05-25T06:43:25.746Z,15.03
2018-05-25T06:45:52.242Z,14.93
2018-05-25T06:48:18.636Z,14.23
2018-05-25T06:50:46.027Z,14.77
2018-05-25T06:53:13.129Z,14.40
2018-05-25T06:55:39.759Z,14.17
2018-05-25T06:58:06.271Z,13.53
2018-05-25T07:00:32.835Z,15.27
2018-05-25T07:02:59.320Z,14.70
2018-05-25T07:05:25.838Z,14.57
2018-05-25T07:07:52.240Z,14.20
2018-05-25T07:10:18.970Z,13.40
2018-05-25T07:12:45.367Z,13.33
2018-05-25T07:15:11.984Z,13.87
2018-05-25T07:17:38.329Z,13.37
2018-05-25T07:20:04.913Z,13.13
2018-05-25T07:22:32.243Z,12.40
2018-05-25T07:24:58.699Z,13.67
2018-05-25T07:27:25.075Z,13.47
2018-05-25T07:29:51.549Z,12.80
2018-05-25T07:32:19.128Z,14.33
2018-05-25T07:34:46.256Z,13.37
2018-05-25T07:37:12.585Z,14.00
2018-05-25T07:39:39.217Z,14.80
2018-05-25T07:42:05.754Z,15.10
2018-05-25T07:44:32.508Z,15.40
2018-05-25T07:46:58.897Z,15.50
2018-05-25T07:49:25.453Z,14.37
2018-05-25T07:51:52.000Z,12.50
2018-05-25T07:54:18.553Z,15.40
2018-05-25T07:56:44.932Z,13.60
2018-05-25T07:59:11.514Z,14.60
2018-05-25T08:01:38.697Z,14.53
2018-05-25T08:04:05.175Z,12.73
2018-05-25T08:06:31.651Z,11.90
2018-05-25T08:08:58.892Z,13.30
2018-05-25T08:11:26.207Z,11.33
2018-05-25T08:13:54.393Z,10.67
2018-05-25T08:16:21.639Z,8.87
2018-05-25T08:18:48.220Z,9.53
2018-05-25T08:21:15.421Z,9.00
2018-05-25T08:23:41.915Z,10.83
2018-05-25T08:26:08.508Z,14.33
2018-05-25T08:28:35.757Z,9.80
2018-05-25T08:31:02.283Z,11.30
2018-05-25T08:33:28.922Z,11.77
2018-05-25T08:35:55.297Z,11.00
2018-05-25T08:38:21.786Z,11.20
2018-05-25T08:40:48.429Z,10.70
2018-05-25T08:43:16.118Z,11.33
2018-05-25T08:45:43.285Z,10.87
2018-05-25T08:48:09.929Z,9.60
2018-05-25T08:50:36.446Z,8.70
2018-05-25T08:53:03.631Z,9.23
2018-05-25T08:55:30.130Z,8.87
2018-05-25T08:57:57.327Z,8.90
2018-05-25T09:00:23.834Z,8.50
2018-05-25T09:02:50.208Z,8.73
2018-05-25T09:05:16.761Z,9.50
2018-05-25T09:07:44.191Z,8.87
2018-05-25T09:10:10.844Z,8.90
2018-05-25T09:12:37.473Z,9.57
2018-05-25T09:15:03.962Z,10.17
2018-05-25T09:17:30.431Z,9.30
2018-05-25T09:19:56.819Z,9.73
2018-05-25T09:22:23.282Z,11.80
2018-05-25T09:24:49.808Z,12.47
2018-05-25T09:27:16.369Z,11.27
2018-05-25T09:29:42.914Z,11.60
2018-05-25T09:32:09.343Z,11.50
2018-05-25T09:34:35.731Z,12.00
2018-05-25T09:37:02.257Z,9.90
2018-05-25T09:39:28.643Z,9.97
2018-05-25T09:41:55.140Z,10.23
2018-05-25T09:44:21.570Z,10.40
2018-05-25T09:46:48.213Z,10.87
2018-05-25T09:49:14.786Z,9.50
2018-05-25T09:51:41.215Z,10.10
2018-05-25T09:54:07.616Z,12.60
2018-05-25T09:56:36.140Z,11.07
2018-05-25T09:59:03.629Z,11.10
2018-05-25T10:01:30.126Z,10.80
2018-05-25T10:03:57.308Z,9.97
2018-05-25T10:06:23.770Z,11.83
2018-05-25T10:08:50.176Z,10.23
2018-05-25T10:11:16.592Z,9.90
2018-05-25T10:13:44.009Z,9.70
2018-05-25T10:16:10.505Z,9.73
2018-05-25T10:18:37.172Z,9.17
2018-05-25T10:21:03.710Z,8.77
2018-05-25T10:23:30.145Z,8.93
2018-05-25T10:25:56.644Z,8.67
2018-05-25T10:28:23.108Z,8.53
2018-05-25T10:30:49.583Z,9.63
2018-05-25T10:33:19.863Z,9.63
2018-05-25T10:35:46.508Z,10.57
2018-05-25T10:38:12.923Z,10.13
2018-05-25T10:40:39.542Z,9.23
2018-05-25T10:43:06.115Z,8.67
2018-05-25T10:45:33.101Z,9.13
2018-05-25T10:48:00.703Z,7.60
2018-05-25T10:50:27.311Z,8.80
2018-05-25T10:52:53.710Z,7.73
2018-05-25T10:55:21.045Z,8.40
2018-05-25T10:57:47.474Z,8.40
2018-05-25T11:00:13.884Z,7.60
2018-05-25T11:02:40.839Z,6.93
2018-05-25T11:05:07.377Z,7.23
2018-05-25T11:07:34.163Z,7.90
2018-05-25T11:10:01.518Z,7.63
2018-05-25T11:12:27.968Z,7.33
2018-05-25T11:14:54.641Z,7.20
2018-05-25T11:17:21.061Z,7.07
2018-05-25T11:19:47.549Z,6.93
2018-05-25T11:22:15.066Z,6.53
2018-05-25T11:24:41.903Z,6.77
2018-05-25T11:27:08.453Z,5.80
2018-05-25T11:29:34.848Z,5.87
2018-05-25T11:32:01.435Z,4.87
2018-05-25T11:34:28.617Z,5.20
2018-05-25T11:36:55.033Z,5.30
2018-05-25T11:39:22.341Z,4.73
2018-05-25T11:41:49.022Z,4.40
2018-05-25T11:44:16.201Z,4.80
2018-05-25T11:46:42.635Z,5.37
2018-05-25T11:49:09.345Z,5.30
2018-05-25T11:51:36.463Z,5.27
2018-05-25T11:54:03.189Z,5.70
2018-05-25T11:56:29.582Z,5.93
2018-05-25T11:58:55.953Z,5.93
2018-05-25T12:01:22.402Z,5.40
2018-05-25T12:03:48.813Z,5.20
2018-05-25T12:06:15.423Z,5.93
2018-05-25T12:08:41.991Z,5.07
2018-05-25T12:11:08.362Z,4.07
2018-05-25T12:13:35.672Z,3.80
2018-05-25T12:16:02.063Z,4.30
2018-05-25T12:18:28.649Z,2.97
2018-05-25T12:20:55.062Z,3.60
2018-05-25T12:23:23.167Z,3.63
2018-05-25T12:25:50.319Z,3.43
2018-05-25T12:28:16.783Z,3.20
2018-05-25T12:30:43.299Z,3.90
2018-05-25T12:33:10.370Z,4.40
2018-05-25T12:35:36.870Z,4.60
2018-05-25T12:38:04.276Z,4.47
2018-05-25T12:40:30.861Z,4.93
2018-05-25T12:42:57.588Z,4.70
2018-05-25T12:45:24.145Z,4.60
2018-05-25T12:47:51.308Z,4.87
2018-05-25T12:50:17.827Z,5.20
2018-05-25T12:52:45.141Z,4.73
2018-05-25T12:55:11.536Z,4.73
2018-05-25T12:57:38.011Z,4.57
2018-05-25T13:00:04.545Z,6.00
2018-05-25T13:02:31.559Z,5.07
2018-05-25T13:04:58.307Z,5.13
2018-05-25T13:07:24.712Z,5.13
2018-05-25T13:09:51.166Z,5.50
2018-05-25T13:12:17.631Z,5.37
2018-05-25T13:14:44.247Z,5.60
2018-05-25T13:17:10.742Z,5.63
2018-05-25T13:19:37.957Z,6.03
2018-05-25T13:22:04.751Z,6.50
2018-05-25T13:24:31.138Z,6.63
2018-05-25T13:26:57.579Z,6.47
2018-05-25T13:29:25.473Z,7.60
2018-05-25T13:31:52.024Z,7.10
2018-05-25T13:34:18.462Z,7.23
2018-05-25T13:36:44.850Z,6.70
2018-05-25T13:39:12.203Z,5.80
2018-05-25T13:41:39.462Z,6.03
2018-05-25T13:44:06.720Z,6.50
2018-05-25T13:46:35.256Z,7.40
2018-05-25T13:49:02.717Z,6.60
2018-05-25T13:51:29.251Z,7.23
2018-05-25T13:53:55.846Z,14.57
2018-05-25T13:56:22.253Z,7.20
2018-05-25T13:58:49.445Z,6.23
2018-05-25T14:01:16.740Z,7.60
2018-05-25T14:03:43.781Z,6.83
2018-05-25T14:06:10.167Z,6.20
2018-05-25T14:08:36.608Z,6.60
2018-05-25T14:11:03.010Z,6.70
2018-05-25T14:13:29.510Z,7.00
2018-05-25T14:15:56.147Z,6.60
2018-05-25T14:18:22.567Z,7.17
2018-05-25T14:20:49.027Z,7.70
2018-05-25T14:23:16.254Z,7.00
2018-05-25T14:25:42.657Z,6.73
2018-05-25T14:28:09.070Z,6.73
2018-05-25T14:30:37.187Z,7.50
2018-05-25T14:33:03.556Z,6.23
2018-05-25T14:35:30.723Z,6.57
2018-05-25T14:37:57.402Z,8.53
2018-05-25T14:40:23.907Z,7.03
2018-05-25T14:42:50.404Z,7.00
2018-05-25T14:45:17.567Z,8.90
2018-05-25T14:47:44.735Z,7.10
2018-05-25T14:50:11.118Z,7.00
2018-05-25T14:52:37.542Z,6.73
2018-05-25T14:55:03.988Z,6.23
2018-05-25T14:57:30.341Z,6.43
2018-05-25T14:59:57.775Z,6.00
2018-05-25T15:02:24.130Z,5.40
2018-05-25T15:04:51.414Z,6.10
2018-05-25T15:07:18.721Z,5.50
2018-05-25T15:09:45.978Z,5.33
2018-05-25T15:12:12.516Z,6.17
2018-05-25T15:14:39.642Z,6.20
2018-05-25T15:17:06.034Z,5.47
2018-05-25T15:19:32.528Z,6.20
2018-05-25T15:22:00.561Z,6.27
2018-05-25T15:24:26.936Z,5.87
2018-05-25T15:26:53.371Z,5.60
2018-05-25T15:29:20.564Z,5.57
2018-05-25T15:31:47.025Z,5.70
2018-05-25T15:34:13.467Z,4.97
2018-05-25T15:36:40.641Z,5.30
2018-05-25T15:39:07.057Z,5.83
2018-05-25T15:41:35.399Z,5.30
2018-05-25T15:44:01.907Z,6.10
2018-05-25T15:46:28.509Z,5.30
2018-05-25T15:48:54.913Z,5.53
2018-05-25T15:51:21.289Z,5.20
2018-05-25T15:53:47.887Z,5.43
2018-05-25T15:56:14.485Z,5.23
2018-05-25T15:58:41.153Z,5.30
2018-05-25T16:01:07.723Z,5.40
2018-05-25T16:03:35.025Z,5.57
2018-05-25T16:06:01.407Z,5.30
2018-05-25T16:08:27.840Z,4.80
2018-05-25T16:10:55.141Z,5.63
2018-05-25T16:13:21.847Z,5.93
2018-05-25T16:15:48.797Z,5.30
2018-05-25T16:18:15.463Z,5.83
2018-05-25T16:20:41.883Z,4.93
2018-05-25T16:23:08.376Z,4.97
2018-05-25T16:25:35.452Z,5.57
2018-05-25T16:28:01.797Z,5.30
2018-05-25T16:30:28.188Z,5.33
2018-05-25T16:32:55.430Z,5.40
2018-05-25T16:35:22.617Z,4.63
2018-05-25T16:37:49.101Z,5.67
2018-05-25T16:40:15.563Z,4.40
2018-05-25T16:42:41.866Z,4.73
2018-05-25T16:45:09.012Z,5.00
2018-05-25T16:47:35.833Z,5.60
2018-05-25T16:50:02.418Z,4.93
2018-05-25T16:52:29.018Z,5.20
2018-05-25T16:54:55.534Z,5.20
2018-05-25T16:57:21.995Z,5.50
2018-05-25T16:59:48.372Z,4.67
2018-05-25T17:02:14.996Z,5.10
2018-05-25T17:04:41.398Z,5.40
2018-05-25T17:07:08.547Z,5.07
2018-05-25T17:09:35.704Z,5.43
2018-05-25T17:12:03.739Z,5.00
2018-05-25T17:14:31.033Z,5.30
2018-05-25T17:16:58.344Z,5.50
2018-05-25T17:19:24.926Z,4.90
2018-05-25T17:21:51.320Z,5.13
2018-05-25T17:24:18.005Z,5.60
2018-05-25T17:26:44.724Z,5.20
2018-05-25T17:29:11.882Z,5.03
2018-05-25T17:31:39.002Z,5.30
2018-05-25T17:34:06.460Z,5.40
2018-05-25T17:36:33.024Z,5.50
2018-05-25T17:38:59.468Z,5.47
2018-05-25T17:41:25.865Z,5.87
2018-05-25T17:43:52.374Z,5.27
2018-05-25T17:46:18.941Z,5.53
2018-05-25T17:48:46.108Z,5.50
2018-05-25T17:51:12.558Z,5.83
2018-05-25T17:53:39.385Z,5.20
2018-05-25T17:56:05.927Z,5.13
2018-05-25T17:58:32.278Z,6.00
2018-05-25T18:00:58.816Z,5.40
2018-05-25T18:03:25.427Z,5.47
2018-05-25T18:05:52.933Z,5.67
2018-05-25T18:08:19.563Z,6.20
2018-05-25T18:10:45.959Z,5.70
2018-05-25T18:13:12.426Z,5.60
2018-05-25T18:15:39.523Z,5.33
2018-05-25T18:18:06.020Z,6.00
2018-05-25T18:20:32.659Z,5.90
2018-05-25T18:22:59.489Z,5.90
2018-05-25T18:25:25.907Z,5.43
2018-05-25T18:27:52.291Z,5.87
2018-05-25T18:30:19.637Z,5.40
2018-05-25T18:32:46.815Z,5.70
2018-05-25T18:35:13.399Z,5.80
2018-05-25T18:37:39.983Z,5.73
2018-05-25T18:40:06.413Z,5.90
2018-05-25T18:42:32.925Z,5.50
2018-05-25T18:45:01.363Z,6.00
2018-05-25T18:47:28.774Z,6.00
2018-05-25T18:49:56.696Z,6.40
2018-05-25T18:52:23.271Z,5.53
2018-05-25T18:54:50.386Z,6.13
2018-05-25T18:57:16.807Z,6.20
2018-05-25T18:59:43.281Z,5.90
2018-05-25T19:02:10.497Z,5.90
2018-05-25T19:04:36.977Z,6.20
2018-05-25T19:07:03.422Z,5.60
2018-05-25T19:09:29.898Z,6.40
2018-05-25T19:11:56.349Z,5.50
2018-05-25T19:14:22.844Z,6.23
2018-05-25T19:16:49.273Z,6.90
2018-05-25T19:19:15.774Z,6.50
2018-05-25T19:21:42.307Z,6.40
2018-05-25T19:24:09.478Z,6.63
2018-05-25T19:26:36.029Z,6.33
2018-05-25T19:29:02.690Z,6.70
2018-05-25T19:31:29.297Z,6.63
2018-05-25T19:33:55.770Z,6.80
2018-05-25T19:36:22.296Z,6.23
2018-05-25T19:38:48.895Z,6.67
2018-05-25T19:41:15.377Z,6.40
2018-05-25T19:43:45.310Z,6.70
2018-05-25T19:46:12.528Z,6.93
2018-05-25T19:48:38.905Z,7.27
2018-05-25T19:51:05.624Z,6.53
2018-05-25T19:53:32.812Z,6.80
2018-05-25T19:56:00.004Z,7.37
2018-05-25T19:58:26.545Z,6.40
2018-05-25T20:00:54.560Z,7.67
2018-05-25T20:03:22.264Z,6.30
2018-05-25T20:05:49.822Z,7.37
2018-05-25T20:08:16.465Z,6.63
2018-05-25T20:10:42.991Z,7.50
2018-05-25T20:13:10.521Z,7.93
2018-05-25T20:15:37.531Z,7.10
2018-05-25T20:18:04.714Z,6.90
2018-05-25T20:20:31.098Z,6.77
2018-05-25T20:22:57.665Z,7.80
2018-05-25T20:25:24.069Z,7.20
2018-05-25T20:27:50.537Z,8.37
2018-05-25T20:30:17.025Z,7.40
2018-05-25T20:32:43.407Z,6.60
2018-05-25T20:35:09.821Z,6.70
2018-05-25T20:37:36.278Z,7.37
2018-05-25T20:40:02.761Z,7.27
2018-05-25T20:42:30.108Z,7.60
2018-05-25T20:44:56.551Z,7.40
2018-05-25T20:47:23.788Z,8.23
2018-05-25T20:49:50.283Z,7.17
2018-05-25T20:52:16.632Z,7.47
2018-05-25T20:54:43.154Z,6.83
2018-05-25T20:57:09.519Z,7.40
2018-05-25T20:59:35.939Z,7.07
2018-05-25T21:02:02.296Z,7.20
2018-05-25T21:04:29.405Z,6.83
2018-05-25T21:06:56.173Z,6.63
2018-05-25T21:09:22.721Z,7.90
2018-05-25T21:11:50.053Z,7.23
2018-05-25T21:14:16.800Z,7.53
2018-05-25T21:16:43.588Z,7.33
2018-05-25T21:19:10.104Z,7.63
2018-05-25T21:21:36.696Z,7.60
2018-05-25T21:24:03.054Z,7.70
2018-05-25T21:26:30.393Z,7.87
2018-05-25T21:28:56.867Z,6.90
2018-05-25T21:31:23.466Z,6.80
2018-05-25T21:33:49.894Z,8.07
2018-05-25T21:36:16.232Z,7.27
2018-05-25T21:38:42.607Z,7.13
2018-05-25T21:41:09.002Z,7.80
2018-05-25T21:43:36.230Z,7.60
2018-05-25T21:46:02.611Z,7.87
2018-05-25T21:48:28.986Z,7.57
2018-05-25T21:50:55.385Z,7.73
2018-05-25T21:53:21.868Z,7.10
2018-05-25T21:55:48.485Z,6.70
2018-05-25T21:58:15.068Z,7.70
2018-05-25T22:00:42.381Z,7.77
2018-05-25T22:03:11.963Z,7.00
2018-05-25T22:05:38.356Z,7.33
2018-05-25T22:08:05.481Z,7.20
2018-05-25T22:10:32.147Z,7.20
2018-05-25T22:12:58.636Z,7.10
2018-05-25T22:15:25.158Z,7.73
2018-05-25T22:17:51.712Z,6.40
2018-05-25T22:20:18.270Z,7.40
2018-05-25T22:22:45.428Z,7.60
2018-05-25T22:25:12.732Z,7.10
2018-05-25T22:27:39.136Z,8.00
2018-05-25T22:30:05.504Z,7.50
2018-05-25T22:32:32.156Z,7.70
2018-05-25T22:34:58.627Z,7.17
2018-05-25T22:37:25.033Z,7.20
2018-05-25T22:39:52.278Z,6.33
2018-05-25T22:42:31.020Z,7.20
2018-05-25T22:45:10.303Z,7.43
2018-05-25T22:47:49.017Z,6.70
2018-05-25T22:50:27.810Z,7.23
2018-05-25T22:53:00.012Z,6.90
2018-05-25T22:55:26.449Z,7.10
2018-05-25T22:57:52.886Z,6.70
2018-05-25T23:00:19.313Z,7.20
2018-05-25T23:02:45.848Z,7.10
2018-05-25T23:05:12.261Z,6.67
2018-05-25T23:07:38.821Z,6.73
2018-05-25T23:10:05.302Z,7.40
2018-05-25T23:12:32.632Z,7.57
2018-05-25T23:14:59.779Z,6.40
2018-05-25T23:17:26.940Z,7.67
2018-05-25T23:19:53.442Z,7.10
2018-05-25T23:22:19.973Z,6.37
2018-05-25T23:24:46.299Z,5.90
2018-05-25T23:27:12.692Z,6.17
2018-05-25T23:29:39.039Z,7.10
2018-05-25T23:32:05.650Z,7.53
2018-05-25T23:34:32.190Z,6.93
2018-05-25T23:36:59.312Z,7.20
2018-05-25T23:39:26.432Z,6.57
2018-05-25T23:41:52.859Z,6.30
2018-05-25T23:44:19.232Z,6.53
2018-05-25T23:46:46.370Z,5.70
2018-05-25T23:49:13.646Z,5.70
2018-05-25T23:51:40.017Z,6.37
2018-05-25T23:54:06.534Z,6.00
2018-05-25T23:56:32.876Z,6.60
2018-05-25T23:59:00.236Z,5.83
